EICFY EINN-EINN

Flight info

Callsign EICFY
Flight time 0h 16m
Altitude 1400
Route VFR OVER CLARE
Aircraft C152/L-VGDW/C

Departure

Time 2026-05-07 19:08
Airport Shannon Airport (EINN)

Arrival

Time 2026-05-07 19:25
Airport Shannon Airport (EINN)
Time Latitude Longitude Altitude Speed Heading
2026-05-07 18:53 52.69216 -8.91326 33 ft 0 kts 44°
2026-05-07 19:02 52.69217 -8.91326 33 ft 0 kts 44°
2026-05-07 19:02 52.69225 -8.91359 33 ft 9 kts 271°
2026-05-07 19:03 52.69255 -8.91483 34 ft 10 kts 288°
2026-05-07 19:03 52.69283 -8.91510 34 ft 14 kts 13°
2026-05-07 19:03 52.69394 -8.91457 33 ft 18 kts 18°
2026-05-07 19:03 52.69514 -8.91386 31 ft 19 kts 17°
2026-05-07 19:04 52.69641 -8.91317 30 ft 20 kts 18°
2026-05-07 19:04 52.69773 -8.91247 29 ft 20 kts 17°
2026-05-07 19:04 52.69960 -8.91139 27 ft 34 kts 18°
2026-05-07 19:04 52.70169 -8.91024 25 ft 18 kts 18°
2026-05-07 19:05 52.70262 -8.90979 24 ft 17 kts 24°
2026-05-07 19:05 52.70468 -8.90858 22 ft 35 kts 20°
2026-05-07 19:05 52.70677 -8.90741 20 ft 25 kts 18°
2026-05-07 19:05 52.70840 -8.90662 19 ft 23 kts 359°
2026-05-07 19:06 52.70921 -8.90728 18 ft 0 kts 323°
2026-05-07 19:06 52.70923 -8.90731 18 ft 4 kts 323°
2026-05-07 19:07 52.70956 -8.90862 18 ft 20 kts 246°
2026-05-07 19:07 52.70818 -8.91165 21 ft 54 kts 233°
2026-05-07 19:07 52.70524 -8.91786 39 ft 77 kts 231°
2026-05-07 19:07 52.70190 -8.92468 121 ft 76 kts 233°
2026-05-07 19:08 52.69838 -8.93210 278 ft 80 kts 231°
2026-05-07 19:08 52.69432 -8.93931 388 ft 90 kts 226°
2026-05-07 19:08 52.68943 -8.94557 561 ft 86 kts 200°
2026-05-07 19:08 52.68382 -8.94488 713 ft 91 kts 136°
2026-05-07 19:09 52.68181 -8.93443 760 ft 98 kts 98°
2026-05-07 19:09 52.68115 -8.92338 898 ft 97 kts 95°
2026-05-07 19:09 52.68070 -8.91243 1076 ft 93 kts 92°
2026-05-07 19:09 52.68068 -8.90128 1150 ft 98 kts 89°
2026-05-07 19:10 52.68095 -8.88943 1100 ft 111 kts 89°
2026-05-07 19:10 52.68067 -8.87664 1026 ft 115 kts 94°
2026-05-07 19:10 52.67975 -8.86378 1030 ft 110 kts 99°
2026-05-07 19:10 52.67903 -8.85622 1052 ft 109 kts 101°
2026-05-07 19:11 52.67865 -8.85265 1054 ft 109 kts 98°
2026-05-07 19:11 52.67790 -8.84050 1102 ft 107 kts 95°
2026-05-07 19:11 52.67717 -8.82830 1144 ft 106 kts 97°
2026-05-07 19:11 52.67628 -8.81646 1227 ft 103 kts 98°
2026-05-07 19:12 52.67538 -8.80457 1274 ft 105 kts 97°
2026-05-07 19:12 52.67472 -8.79281 1342 ft 104 kts 95°
2026-05-07 19:12 52.67438 -8.78085 1391 ft 105 kts 91°
2026-05-07 19:12 52.67428 -8.76862 1388 ft 109 kts 92°
2026-05-07 19:13 52.67370 -8.75582 1287 ft 116 kts 96°
2026-05-07 19:13 52.67287 -8.74225 1123 ft 119 kts 97°
2026-05-07 19:13 52.67095 -8.72919 1060 ft 116 kts 110°
2026-05-07 19:13 52.66815 -8.71729 1053 ft 114 kts 110°
2026-05-07 19:14 52.66616 -8.70465 450 ft 121 kts 98°
2026-05-07 19:14 52.66896 -8.69973 194 ft 93 kts 349°
2026-05-07 19:14 52.67429 -8.70171 299 ft 76 kts 343°
2026-05-07 19:14 52.67849 -8.70529 562 ft 67 kts 289°
2026-05-07 19:15 52.67509 -8.70457 279 ft 112 kts 127°
2026-05-07 19:15 52.66764 -8.69942 46 ft 117 kts 162°
2026-05-07 19:15 52.66060 -8.69548 207 ft 100 kts 151°
2026-05-07 19:15 52.65586 -8.68675 235 ft 98 kts 135°
2026-05-07 19:16 52.65244 -8.67719 289 ft 104 kts 96°
2026-05-07 19:16 52.65330 -8.66501 220 ft 112 kts 77°
2026-05-07 19:16 52.65586 -8.65239 67 ft 115 kts 66°
2026-05-07 19:16 52.65888 -8.64128 292 ft 94 kts 66°
2026-05-07 19:17 52.66313 -8.63512 361 ft 98 kts
2026-05-07 19:17 52.67011 -8.63514 381 ft 103 kts 357°
2026-05-07 19:17 52.67604 -8.64004 456 ft 102 kts 311°
2026-05-07 19:17 52.67932 -8.65027 528 ft 98 kts 292°
2026-05-07 19:18 52.67972 -8.66067 667 ft 94 kts 256°
2026-05-07 19:18 52.67853 -8.67152 703 ft 100 kts 265°
2026-05-07 19:18 52.67884 -8.68310 753 ft 101 kts 278°
2026-05-07 19:18 52.68015 -8.69438 843 ft 97 kts 287°
2026-05-07 19:19 52.68227 -8.70538 874 ft 100 kts 287°
2026-05-07 19:19 52.68385 -8.71670 918 ft 100 kts 277°
2026-05-07 19:19 52.68467 -8.72806 986 ft 101 kts 278°
2026-05-07 19:19 52.68568 -8.73945 1065 ft 100 kts 278°
2026-05-07 19:20 52.68661 -8.75080 1115 ft 101 kts 277°
2026-05-07 19:20 52.68730 -8.76233 1197 ft 99 kts 275°
2026-05-07 19:20 52.68773 -8.77371 1254 ft 101 kts 272°
2026-05-07 19:20 52.68770 -8.78520 1326 ft 100 kts 268°
2026-05-07 19:21 52.68773 -8.79694 1307 ft 105 kts 273°
2026-05-07 19:21 52.68837 -8.80931 1204 ft 111 kts 277°
2026-05-07 19:21 52.69139 -8.82061 1174 ft 108 kts 304°
2026-05-07 19:21 52.69635 -8.82941 1138 ft 110 kts 334°
2026-05-07 19:22 52.70326 -8.83390 1226 ft 100 kts 339°
2026-05-07 19:22 52.71025 -8.83857 1107 ft 110 kts 335°
2026-05-07 19:22 52.71740 -8.84137 1045 ft 111 kts
2026-05-07 19:22 52.72455 -8.83838 1166 ft 94 kts 13°
2026-05-07 19:23 52.72849 -8.84583 1066 ft 90 kts 287°
2026-05-07 19:23 52.72783 -8.85706 640 ft 105 kts 259°
2026-05-07 19:23 52.72607 -8.86787 534 ft 100 kts 245°
2026-05-07 19:23 52.72271 -8.87796 476 ft 91 kts 241°
2026-05-07 19:24 52.71929 -8.88694 369 ft 99 kts 238°
2026-05-07 19:24 52.71591 -8.89508 257 ft 71 kts 236°
2026-05-07 19:24 52.71297 -8.90160 177 ft 75 kts 233°
2026-05-07 19:24 52.71010 -8.90784 92 ft 67 kts 232°
2026-05-07 19:25 52.70704 -8.91415 38 ft 68 kts 233°
2026-05-07 19:25 52.70501 -8.91855 26 ft 21 kts 232°
2026-05-07 19:25 52.70461 -8.91937 28 ft 26 kts 235°
2026-05-07 19:25 52.70284 -8.92315 31 ft 52 kts 225°
2026-05-07 19:26 52.70050 -8.92807 35 ft 47 kts 232°
2026-05-07 19:26 52.69900 -8.92950 38 ft 13 kts 126°
2026-05-07 19:26 52.69874 -8.92904 37 ft 0 kts 134°
2026-05-07 19:26 52.69863 -8.92885 37 ft 8 kts 135°
2026-05-07 19:27 52.69751 -8.92705 37 ft 40 kts 136°
2026-05-07 19:27 52.69557 -8.92392 37 ft 36 kts 134°
2026-05-07 19:27 52.69476 -8.92128 36 ft 2 kts 90°
2026-05-07 19:28 52.69475 -8.92124 36 ft 0 kts 106°
2026-05-07 19:30 52.69471 -8.92100 36 ft 7 kts 104°
2026-05-07 19:30 52.69457 -8.91997 35 ft 11 kts 103°
2026-05-07 19:31 52.69433 -8.91855 35 ft 17 kts 110°
2026-05-07 19:31 52.69337 -8.91744 35 ft 18 kts 161°
2026-05-07 19:31 52.69252 -8.91596 34 ft 16 kts 121°
2026-05-07 19:31 52.69257 -8.91482 34 ft 9 kts 127°
2026-05-07 19:32 52.69251 -8.91388 33 ft 4 kts 40°